Orient, New York
Current Conditions -  °F | °C
As of 1:56 PM on Tuesday 21 Oct 2014 (Local Time) from KGON Reporting Station
Few Clouds Few Clouds  
Wind Chill: 64°   Ceiling: Unl
Heat Index: 64°   Visibility: 10mi
Dew Point: 53°   Wind: 6mph
Humidity: 67%   Direction: 150°SSE
Pressure: 29.88"   Gusts: NA
Location:  41.14°N, 72.3°W
Report Text: KGON 211756Z 15005KT 10SM FEW015 18/12 A2988 RMK AO2 SLP116 T01780117 10183 20100 58014
Loading
Personal Weather Stations






























Interactive Weather Map
Tropical Storm Tracking
New forecast layout! Learn more

10-Day Weather Forecast

Advertisements
Track Severe Weather on mobile